Terminal Aerodrome Forecast
Issued by NWS

Home | Current Version | Previous Version | Graphics & Text | Print | Product List | Glossary On
Versions: 1 2 3 4 5 6 7 8 9 10 11 12 13 14 15
706
FTUS43 KABR 050049 AAA
TAFPIR
TAF AMD
KPIR 050049Z 0501/0524 18009KT P6SM SCT120 BKN250
     FM050600 21006KT P6SM BKN060 OVC120
     FM051400 30012KT 4SM -SN BKN025 OVC040
     FM052100 32009KT P6SM FEW030 BKN080 OVC150=

USA.gov is the U.S. government's official web portal to all federal, state and local government web resources and services.